Time,TemperatureF,DewpointF,PressureIn,WindDirection,WindDirectionDegrees,WindSpeedMPH,WindSpeedGustMPH,Humidity,HourlyPrecipIn,Conditions,Clouds,dailyrainin,SolarRadiationWatts/m^2,SoftwareType,DateUTC
2013-05-27 00:11:00,43.0,27.0,-100.00,ESE,123,0.0,4.0,52,0.00,,,0.00,0.000000,,2013-05-27 07:11:00,
2013-05-27 00:21:00,43.0,27.0,-100.00,ESE,123,0.0,4.0,52,0.00,,,0.00,0.000000,,2013-05-27 07:21:00,
2013-05-27 00:31:00,43.0,27.0,-100.00,ESE,123,0.0,4.0,52,0.00,,,0.00,0.000000,,2013-05-27 07:31:00,
2013-05-27 00:41:00,43.0,27.0,-100.00,ESE,123,0.0,4.0,52,0.00,,,0.00,0.000000,,2013-05-27 07:41:00,
2013-05-27 01:11:00,40.0,23.0,-100.00,SE,132,3.0,6.0,51,0.00,,,0.00,0.000000,,2013-05-27 08:11:00,
2013-05-27 01:21:00,40.0,23.0,-100.00,SE,132,3.0,6.0,51,0.00,,,0.00,0.000000,,2013-05-27 08:21:00,
2013-05-27 01:32:00,40.0,23.0,-100.00,SE,132,3.0,6.0,51,0.00,,,0.00,0.000000,,2013-05-27 08:32:00,
2013-05-27 01:42:00,40.0,23.0,-100.00,SE,132,3.0,6.0,51,0.00,,,0.00,0.000000,,2013-05-27 08:42:00,
2013-05-27 02:11:00,38.0,18.0,-100.00,SE,131,4.0,8.0,44,0.00,,,0.00,0.000000,,2013-05-27 09:11:00,
2013-05-27 02:21:00,38.0,18.0,-100.00,SE,131,4.0,8.0,44,0.00,,,0.00,0.000000,,2013-05-27 09:21:00,
2013-05-27 02:33:00,38.0,18.0,-100.00,SE,131,4.0,8.0,44,0.00,,,0.00,0.000000,,2013-05-27 09:33:00,
2013-05-27 02:42:00,38.0,18.0,-100.00,SE,131,4.0,8.0,44,0.00,,,0.00,0.000000,,2013-05-27 09:42:00,
2013-05-27 03:12:00,37.0,20.0,-100.00,SE,136,4.0,8.0,49,0.00,,,0.00,0.000000,,2013-05-27 10:12:00,
2013-05-27 03:22:00,37.0,20.0,-100.00,SE,136,4.0,8.0,49,0.00,,,0.00,0.000000,,2013-05-27 10:22:00,
2013-05-27 03:32:00,37.0,20.0,-100.00,SE,136,4.0,8.0,49,0.00,,,0.00,0.000000,,2013-05-27 10:32:00,
2013-05-27 03:42:00,37.0,20.0,-100.00,SE,136,4.0,8.0,49,0.00,,,0.00,0.000000,,2013-05-27 10:42:00,
2013-05-27 04:11:00,37.0,18.0,-100.00,SE,135,5.0,8.0,46,0.00,,,0.00,0.000000,,2013-05-27 11:11:00,
2013-05-27 04:21:00,37.0,18.0,-100.00,SE,135,5.0,8.0,46,0.00,,,0.00,0.000000,,2013-05-27 11:21:00,
2013-05-27 04:32:00,37.0,18.0,-100.00,SE,135,5.0,8.0,46,0.00,,,0.00,0.000000,,2013-05-27 11:32:00,
2013-05-27 04:42:00,37.0,18.0,-100.00,SE,135,5.0,8.0,46,0.00,,,0.00,0.000000,,2013-05-27 11:42:00,
2013-05-27 05:11:00,37.0,17.0,-100.00,SE,143,4.0,8.0,43,0.00,,,0.00,0.000000,,2013-05-27 12:11:00,
2013-05-27 05:21:00,37.0,17.0,-100.00,SE,143,4.0,8.0,43,0.00,,,0.00,0.000000,,2013-05-27 12:21:00,
2013-05-27 05:31:00,37.0,17.0,-100.00,SE,143,4.0,8.0,43,0.00,,,0.00,0.000000,,2013-05-27 12:31:00,
2013-05-27 05:42:00,37.0,17.0,-100.00,SE,143,4.0,8.0,43,0.00,,,0.00,0.000000,,2013-05-27 12:42:00,
2013-05-27 06:11:00,35.0,15.0,-100.00,SE,135,2.0,8.0,43,0.00,,,0.00,2.000000,,2013-05-27 13:11:00,
2013-05-27 06:21:00,35.0,15.0,-100.00,SE,135,2.0,8.0,43,0.00,,,0.00,2.000000,,2013-05-27 13:21:00,
2013-05-27 06:32:00,35.0,15.0,-100.00,SE,135,2.0,8.0,43,0.00,,,0.00,2.000000,,2013-05-27 13:32:00,
2013-05-27 06:41:00,35.0,15.0,-100.00,SE,135,2.0,8.0,43,0.00,,,0.00,2.000000,,2013-05-27 13:41:00,
2013-05-27 07:11:00,38.0,13.0,-100.00,SE,126,4.0,9.0,36,0.00,,,0.00,36.000000,,2013-05-27 14:11:00,
2013-05-27 07:21:00,38.0,13.0,-100.00,SE,126,4.0,9.0,36,0.00,,,0.00,36.000000,,2013-05-27 14:21:00,
2013-05-27 07:32:00,38.0,13.0,-100.00,SE,126,4.0,9.0,36,0.00,,,0.00,36.000000,,2013-05-27 14:32:00,
2013-05-27 07:42:00,38.0,13.0,-100.00,SE,126,4.0,9.0,36,0.00,,,0.00,36.000000,,2013-05-27 14:42:00,
2013-05-27 08:11:00,49.0,20.0,-100.00,SE,131,1.0,8.0,31,0.00,,,0.00,128.000000,,2013-05-27 15:11:00,
2013-05-27 08:21:00,49.0,20.0,-100.00,SE,131,1.0,8.0,31,0.00,,,0.00,128.000000,,2013-05-27 15:21:00,
2013-05-27 08:33:00,49.0,20.0,-100.00,SE,131,1.0,8.0,31,0.00,,,0.00,128.000000,,2013-05-27 15:33:00,
2013-05-27 08:43:00,49.0,20.0,-100.00,SE,131,1.0,8.0,31,0.00,,,0.00,128.000000,,2013-05-27 15:43:00,
2013-05-27 09:12:00,54.0,11.0,-100.00,WSW,242,10.0,21.0,18,0.00,,,0.00,253.000000,,2013-05-27 16:12:00,
2013-05-27 09:23:00,54.0,11.0,-100.00,WSW,242,10.0,21.0,18,0.00,,,0.00,253.000000,,2013-05-27 16:23:00,
2013-05-27 09:33:00,54.0,11.0,-100.00,WSW,242,10.0,21.0,18,0.00,,,0.00,253.000000,,2013-05-27 16:33:00,
2013-05-27 09:42:00,54.0,11.0,-100.00,WSW,242,10.0,21.0,18,0.00,,,0.00,253.000000,,2013-05-27 16:42:00,
2013-05-27 10:11:00,58.0,15.0,-100.00,SSW,207,5.0,21.0,18,0.00,,,0.00,396.000000,,2013-05-27 17:11:00,
2013-05-27 10:22:00,58.0,15.0,-100.00,SSW,207,5.0,21.0,18,0.00,,,0.00,396.000000,,2013-05-27 17:22:00,
2013-05-27 10:32:00,58.0,15.0,-100.00,SSW,207,5.0,21.0,18,0.00,,,0.00,396.000000,,2013-05-27 17:32:00,
2013-05-27 10:42:00,58.0,15.0,-100.00,SSW,207,5.0,21.0,18,0.00,,,0.00,396.000000,,2013-05-27 17:42:00,
2013-05-27 11:11:00,63.0,15.0,-100.00,SW,230,7.0,15.0,15,0.00,,,0.00,738.000000,,2013-05-27 18:11:00,
2013-05-27 11:21:00,63.0,15.0,-100.00,SW,230,7.0,15.0,15,0.00,,,0.00,738.000000,,2013-05-27 18:21:00,
2013-05-27 11:32:00,63.0,15.0,-100.00,SW,230,7.0,15.0,15,0.00,,,0.00,738.000000,,2013-05-27 18:32:00,
2013-05-27 11:42:00,63.0,15.0,-100.00,SW,230,7.0,15.0,15,0.00,,,0.00,738.000000,,2013-05-27 18:42:00,
2013-05-27 12:11:00,62.0,24.0,-100.00,SSW,210,9.0,22.0,23,0.00,,,-99.99,641.000000,,2013-05-27 19:11:00,
2013-05-27 12:21:00,62.0,24.0,-100.00,SSW,210,9.0,22.0,23,0.00,,,-99.99,641.000000,,2013-05-27 19:21:00,
2013-05-27 12:31:00,62.0,24.0,-100.00,SSW,210,9.0,22.0,23,0.00,,,-99.99,641.000000,,2013-05-27 19:31:00,
2013-05-27 12:41:00,62.0,24.0,-100.00,SSW,210,9.0,22.0,23,0.00,,,-99.99,641.000000,,2013-05-27 19:41:00,
2013-05-27 13:11:00,62.0,29.0,-100.00,SW,233,7.0,24.0,29,0.00,,,0.00,740.000000,,2013-05-27 20:11:00,
2013-05-27 13:22:00,62.0,29.0,-100.00,SW,233,7.0,24.0,29,0.00,,,0.00,740.000000,,2013-05-27 20:22:00,
2013-05-27 13:32:00,62.0,29.0,-100.00,SW,233,7.0,24.0,29,0.00,,,0.00,740.000000,,2013-05-27 20:32:00,
2013-05-27 13:41:00,62.0,29.0,-100.00,SW,233,7.0,24.0,29,0.00,,,0.00,740.000000,,2013-05-27 20:41:00,
2013-05-27 14:12:00,54.0,33.0,-100.00,SSW,207,9.0,27.0,45,0.00,,,0.00,423.000000,,2013-05-27 21:12:00,
2013-05-27 14:21:00,54.0,33.0,-100.00,SSW,207,9.0,27.0,45,0.00,,,0.00,423.000000,,2013-05-27 21:21:00,
2013-05-27 14:33:00,54.0,33.0,-100.00,SSW,207,9.0,27.0,45,0.00,,,0.00,423.000000,,2013-05-27 21:33:00,
2013-05-27 14:42:00,54.0,33.0,-100.00,SSW,207,9.0,27.0,45,0.00,,,0.00,423.000000,,2013-05-27 21:42:00,
2013-05-27 15:12:00,49.0,36.0,-100.00,SSW,196,9.0,18.0,60,0.00,,,0.00,273.000000,,2013-05-27 22:12:00,
2013-05-27 15:22:00,49.0,36.0,-100.00,SSW,196,9.0,18.0,60,0.00,,,0.00,273.000000,,2013-05-27 22:22:00,
2013-05-27 15:32:00,49.0,36.0,-100.00,SSW,196,9.0,18.0,60,0.00,,,0.00,273.000000,,2013-05-27 22:32:00,
2013-05-27 15:42:00,49.0,36.0,-100.00,SSW,196,9.0,18.0,60,0.00,,,0.00,273.000000,,2013-05-27 22:42:00,
2013-05-27 16:12:00,52.0,34.0,-100.00,SW,236,11.0,22.0,50,0.00,,,0.00,405.000000,,2013-05-27 23:12:00,
2013-05-27 16:22:00,52.0,34.0,-100.00,SW,236,11.0,22.0,50,0.00,,,0.00,405.000000,,2013-05-27 23:22:00,
2013-05-27 16:32:00,52.0,34.0,-100.00,SW,236,11.0,22.0,50,0.00,,,0.00,405.000000,,2013-05-27 23:32:00,
2013-05-27 16:42:00,52.0,34.0,-100.00,SW,236,11.0,22.0,50,0.00,,,0.00,405.000000,,2013-05-27 23:42:00,
2013-05-27 17:11:00,51.0,33.0,-100.00,SSW,212,8.0,21.0,49,0.00,,,0.00,302.000000,,2013-05-28 00:11:00,
2013-05-27 17:21:00,51.0,33.0,-100.00,SSW,212,8.0,21.0,49,0.00,,,0.00,302.000000,,2013-05-28 00:21:00,
2013-05-27 17:31:00,51.0,33.0,-100.00,SSW,212,8.0,21.0,49,0.00,,,0.00,302.000000,,2013-05-28 00:31:00,
2013-05-27 17:41:00,51.0,33.0,-100.00,SSW,212,8.0,21.0,49,0.00,,,0.00,302.000000,,2013-05-28 00:41:00,
2013-05-27 18:11:00,52.0,34.0,-100.00,South,184,8.0,16.0,51,0.00,,,0.00,129.000000,,2013-05-28 01:11:00,
2013-05-27 18:21:00,52.0,34.0,-100.00,South,184,8.0,16.0,51,0.00,,,0.00,129.000000,,2013-05-28 01:21:00,
2013-05-27 18:31:00,52.0,34.0,-100.00,South,184,8.0,16.0,51,0.00,,,0.00,129.000000,,2013-05-28 01:31:00,
2013-05-27 18:41:00,52.0,34.0,-100.00,South,184,8.0,16.0,51,0.00,,,0.00,129.000000,,2013-05-28 01:41:00,
2013-05-27 19:11:00,52.0,34.0,-100.00,SSW,206,7.0,20.0,51,0.00,,,0.00,164.000000,,2013-05-28 02:11:00,
2013-05-27 19:21:00,52.0,34.0,-100.00,SSW,206,7.0,20.0,51,0.00,,,0.00,164.000000,,2013-05-28 02:21:00,
2013-05-27 19:32:00,52.0,34.0,-100.00,SSW,206,7.0,20.0,51,0.00,,,0.00,164.000000,,2013-05-28 02:32:00,
2013-05-27 19:41:00,52.0,34.0,-100.00,SSW,206,7.0,20.0,51,0.00,,,0.00,164.000000,,2013-05-28 02:41:00,
2013-05-27 20:11:00,51.0,34.0,-100.00,South,179,3.0,13.0,51,0.00,,,0.00,82.000000,,2013-05-28 03:11:00,
2013-05-27 20:21:00,51.0,34.0,-100.00,South,179,3.0,13.0,51,0.00,,,0.00,82.000000,,2013-05-28 03:21:00,
2013-05-27 20:33:00,51.0,34.0,-100.00,South,179,3.0,13.0,51,0.00,,,0.00,82.000000,,2013-05-28 03:33:00,
2013-05-27 20:43:00,51.0,34.0,-100.00,South,179,3.0,13.0,51,0.00,,,0.00,82.000000,,2013-05-28 03:43:00,
2013-05-27 21:12:00,50.0,34.0,-100.00,South,177,4.0,17.0,54,0.00,,,0.00,10.000000,,2013-05-28 04:12:00,
2013-05-27 21:22:00,50.0,34.0,-100.00,South,177,4.0,17.0,54,0.00,,,0.00,10.000000,,2013-05-28 04:22:00,
2013-05-27 21:33:00,50.0,34.0,-100.00,South,177,4.0,17.0,54,0.00,,,0.00,10.000000,,2013-05-28 04:33:00,
2013-05-27 21:42:00,50.0,34.0,-100.00,South,177,4.0,17.0,54,0.00,,,0.00,10.000000,,2013-05-28 04:42:00,
2013-05-27 22:12:00,48.0,36.0,-100.00,South,171,6.0,15.0,63,0.00,,,0.00,0.000000,,2013-05-28 05:12:00,
2013-05-27 22:22:00,48.0,36.0,-100.00,South,171,6.0,15.0,63,0.00,,,0.00,0.000000,,2013-05-28 05:22:00,
2013-05-27 22:32:00,48.0,36.0,-100.00,South,171,6.0,15.0,63,0.00,,,0.00,0.000000,,2013-05-28 05:32:00,
2013-05-27 22:42:00,48.0,36.0,-100.00,South,171,6.0,15.0,63,0.00,,,0.00,0.000000,,2013-05-28 05:42:00,
2013-05-27 23:11:00,50.0,37.0,-100.00,SSE,166,5.0,19.0,61,0.00,,,0.00,0.000000,,2013-05-28 06:11:00,
2013-05-27 23:21:00,50.0,37.0,-100.00,SSE,166,5.0,19.0,61,0.00,,,0.00,0.000000,,2013-05-28 06:21:00,
2013-05-27 23:31:00,50.0,37.0,-100.00,SSE,166,5.0,19.0,61,0.00,,,0.00,0.000000,,2013-05-28 06:31:00,
2013-05-27 23:41:00,50.0,37.0,-100.00,SSE,166,5.0,19.0,61,0.00,,,0.00,0.000000,,2013-05-28 06:41:00,